sensor_id;sensor_type;location;lat;lon;timestamp;pressure;altitude;pressure_sealevel;temperature;humidity
39739;BME280;25422;48.286;8.484;2023-04-24T00:01:47;93125.41;;;8.03;100.00
39739;BME280;25422;48.286;8.484;2023-04-24T00:04:13;93109.88;;;7.95;100.00
39739;BME280;25422;48.286;8.484;2023-04-24T00:06:41;93107.59;;;7.92;100.00
39739;BME280;25422;48.286;8.484;2023-04-24T00:09:08;93118.84;;;7.92;100.00
39739;BME280;25422;48.286;8.484;2023-04-24T00:11:36;93121.47;;;7.92;100.00
39739;BME280;25422;48.286;8.484;2023-04-24T00:14:01;93116.88;;;7.94;100.00
39739;BME280;25422;48.286;8.484;2023-04-24T00:16:27;93114.53;;;8.00;100.00
39739;BME280;25422;48.286;8.484;2023-04-24T00:18:53;93117.59;;;8.03;100.00
39739;BME280;25422;48.286;8.484;2023-04-24T00:21:19;93127.84;;;8.05;100.00
39739;BME280;25422;48.286;8.484;2023-04-24T00:23:44;93117.41;;;8.05;100.00
39739;BME280;25422;48.286;8.484;2023-04-24T00:26:10;93118.03;;;8.07;100.00
39739;BME280;25422;48.286;8.484;2023-04-24T00:28:35;93112.28;;;8.12;100.00
39739;BME280;25422;48.286;8.484;2023-04-24T00:31:02;93107.88;;;8.12;100.00
39739;BME280;25422;48.286;8.484;2023-04-24T00:33:28;93111.84;;;8.08;100.00
39739;BME280;25422;48.286;8.484;2023-04-24T00:35:53;93117.69;;;8.10;100.00
39739;BME280;25422;48.286;8.484;2023-04-24T00:38:19;93106.81;;;8.06;100.00
39739;BME280;25422;48.286;8.484;2023-04-24T00:40:45;93112.28;;;8.12;100.00
39739;BME280;25422;48.286;8.484;2023-04-24T00:43:12;93109.88;;;8.10;100.00
39739;BME280;25422;48.286;8.484;2023-04-24T00:45:38;93113.19;;;8.04;100.00
39739;BME280;25422;48.286;8.484;2023-04-24T00:48:03;93112.22;;;8.05;100.00
39739;BME280;25422;48.286;8.484;2023-04-24T00:50:29;93106.16;;;8.04;100.00
39739;BME280;25422;48.286;8.484;2023-04-24T00:52:55;93106.34;;;8.03;100.00
39739;BME280;25422;48.286;8.484;2023-04-24T00:55:21;93100.16;;;8.04;100.00
39739;BME280;25422;48.286;8.484;2023-04-24T00:57:46;93107.38;;;8.02;100.00
39739;BME280;25422;48.286;8.484;2023-04-24T01:00:13;93091.19;;;8.06;100.00
39739;BME280;25422;48.286;8.484;2023-04-24T01:02:41;93097.03;;;8.08;100.00
39739;BME280;25422;48.286;8.484;2023-04-24T01:05:13;93087.78;;;8.06;100.00
39739;BME280;25422;48.286;8.484;2023-04-24T01:07:39;93094.94;;;8.04;100.00
39739;BME280;25422;48.286;8.484;2023-04-24T01:10:07;93088.31;;;8.01;100.00
39739;BME280;25422;48.286;8.484;2023-04-24T01:12:33;93090.91;;;8.01;100.00
39739;BME280;25422;48.286;8.484;2023-04-24T01:14:59;93087.41;;;7.94;100.00
39739;BME280;25422;48.286;8.484;2023-04-24T01:17:24;93084.34;;;7.90;100.00
39739;BME280;25422;48.286;8.484;2023-04-24T01:19:50;93090.13;;;7.86;100.00
39739;BME280;25422;48.286;8.484;2023-04-24T01:22:19;93100.06;;;7.82;100.00
39739;BME280;25422;48.286;8.484;2023-04-24T01:24:46;93097.38;;;7.75;100.00
39739;BME280;25422;48.286;8.484;2023-04-24T01:27:11;93101.88;;;7.67;100.00
39739;BME280;25422;48.286;8.484;2023-04-24T01:29:37;93095.91;;;7.58;100.00
39739;BME280;25422;48.286;8.484;2023-04-24T01:32:03;93098.97;;;7.47;100.00
39739;BME280;25422;48.286;8.484;2023-04-24T01:34:29;93086.03;;;7.38;100.00
39739;BME280;25422;48.286;8.484;2023-04-24T01:36:55;93084.13;;;7.32;100.00
39739;BME280;25422;48.286;8.484;2023-04-24T01:39:21;93075.22;;;7.26;100.00
39739;BME280;25422;48.286;8.484;2023-04-24T01:41:48;93076.38;;;7.24;100.00
39739;BME280;25422;48.286;8.484;2023-04-24T01:44:18;93071.53;;;7.21;100.00
39739;BME280;25422;48.286;8.484;2023-04-24T01:46:44;93074.03;;;7.14;100.00
39739;BME280;25422;48.286;8.484;2023-04-24T01:49:10;93073.25;;;7.14;100.00
39739;BME280;25422;48.286;8.484;2023-04-24T01:51:35;93061.22;;;7.13;100.00
39739;BME280;25422;48.286;8.484;2023-04-24T01:54:02;93065.16;;;7.08;100.00
39739;BME280;25422;48.286;8.484;2023-04-24T01:56:33;93074.97;;;6.98;100.00
39739;BME280;25422;48.286;8.484;2023-04-24T01:58:59;93077.13;;;6.95;100.00
39739;BME280;25422;48.286;8.484;2023-04-24T02:01:25;93086.53;;;6.96;100.00
39739;BME280;25422;48.286;8.484;2023-04-24T02:03:50;93083.31;;;6.94;100.00
39739;BME280;25422;48.286;8.484;2023-04-24T02:06:16;93081.88;;;6.91;100.00
39739;BME280;25422;48.286;8.484;2023-04-24T02:08:42;93081.22;;;6.89;100.00
39739;BME280;25422;48.286;8.484;2023-04-24T02:11:09;93077.03;;;6.88;100.00
39739;BME280;25422;48.286;8.484;2023-04-24T02:13:34;93078.69;;;6.81;100.00
39739;BME280;25422;48.286;8.484;2023-04-24T02:16:00;93083.63;;;6.75;100.00
39739;BME280;25422;48.286;8.484;2023-04-24T02:18:25;93074.50;;;6.71;100.00
39739;BME280;25422;48.286;8.484;2023-04-24T02:20:51;93070.19;;;6.64;100.00
39739;BME280;25422;48.286;8.484;2023-04-24T02:23:16;93075.63;;;6.54;100.00
39739;BME280;25422;48.286;8.484;2023-04-24T02:25:42;93075.66;;;6.46;100.00
39739;BME280;25422;48.286;8.484;2023-04-24T02:28:07;93085.78;;;6.40;100.00
39739;BME280;25422;48.286;8.484;2023-04-24T02:30:33;93080.41;;;6.42;100.00
39739;BME280;25422;48.286;8.484;2023-04-24T02:32:58;93076.22;;;6.33;100.00
39739;BME280;25422;48.286;8.484;2023-04-24T02:35:23;93079.34;;;6.28;100.00
39739;BME280;25422;48.286;8.484;2023-04-24T02:37:49;93091.31;;;6.29;100.00
39739;BME280;25422;48.286;8.484;2023-04-24T02:40:15;93097.19;;;6.31;100.00
39739;BME280;25422;48.286;8.484;2023-04-24T02:42:40;93097.13;;;6.39;100.00
39739;BME280;25422;48.286;8.484;2023-04-24T02:45:06;93100.03;;;6.45;100.00
39739;BME280;25422;48.286;8.484;2023-04-24T02:47:31;93089.63;;;6.45;100.00
39739;BME280;25422;48.286;8.484;2023-04-24T02:49:58;93084.84;;;6.56;100.00
39739;BME280;25422;48.286;8.484;2023-04-24T02:52:24;93084.22;;;6.54;100.00
39739;BME280;25422;48.286;8.484;2023-04-24T02:54:49;93086.28;;;6.59;100.00
39739;BME280;25422;48.286;8.484;2023-04-24T02:57:15;93092.50;;;6.58;100.00
39739;BME280;25422;48.286;8.484;2023-04-24T02:59:41;93084.81;;;6.65;100.00
39739;BME280;25422;48.286;8.484;2023-04-24T03:02:07;93089.72;;;6.60;100.00
39739;BME280;25422;48.286;8.484;2023-04-24T03:04:32;93088.88;;;6.59;100.00
39739;BME280;25422;48.286;8.484;2023-04-24T03:06:57;93086.81;;;6.54;100.00
39739;BME280;25422;48.286;8.484;2023-04-24T03:09:24;93088.63;;;6.46;100.00
39739;BME280;25422;48.286;8.484;2023-04-24T03:11:49;93095.16;;;6.41;100.00
39739;BME280;25422;48.286;8.484;2023-04-24T03:14:15;93093.56;;;6.40;100.00
39739;BME280;25422;48.286;8.484;2023-04-24T03:16:41;93086.75;;;6.39;100.00
39739;BME280;25422;48.286;8.484;2023-04-24T03:19:06;93067.59;;;6.40;100.00
39739;BME280;25422;48.286;8.484;2023-04-24T03:21:37;93073.09;;;6.37;100.00
39739;BME280;25422;48.286;8.484;2023-04-24T03:24:07;93076.69;;;6.36;100.00
39739;BME280;25422;48.286;8.484;2023-04-24T03:26:33;93069.88;;;6.35;100.00
39739;BME280;25422;48.286;8.484;2023-04-24T03:29:17;93070.22;;;6.32;100.00
39739;BME280;25422;48.286;8.484;2023-04-24T03:31:43;93064.06;;;6.25;100.00
39739;BME280;25422;48.286;8.484;2023-04-24T03:34:08;93062.22;;;6.11;100.00
39739;BME280;25422;48.286;8.484;2023-04-24T03:36:36;93061.78;;;5.99;100.00
39739;BME280;25422;48.286;8.484;2023-04-24T03:39:04;93067.00;;;5.82;100.00
39739;BME280;25422;48.286;8.484;2023-04-24T03:41:33;93062.81;;;5.73;100.00
39739;BME280;25422;48.286;8.484;2023-04-24T03:44:08;93064.75;;;5.71;100.00
39739;BME280;25422;48.286;8.484;2023-04-24T03:46:34;93063.75;;;5.80;100.00
39739;BME280;25422;48.286;8.484;2023-04-24T03:49:01;93064.84;;;5.94;100.00
39739;BME280;25422;48.286;8.484;2023-04-24T03:51:30;93063.56;;;5.98;100.00
39739;BME280;25422;48.286;8.484;2023-04-24T03:54:03;93062.25;;;6.02;100.00
39739;BME280;25422;48.286;8.484;2023-04-24T03:56:30;93080.44;;;6.02;100.00
39739;BME280;25422;48.286;8.484;2023-04-24T03:58:56;93077.78;;;6.11;100.00
39739;BME280;25422;48.286;8.484;2023-04-24T04:01:21;93088.16;;;6.19;100.00
39739;BME280;25422;48.286;8.484;2023-04-24T04:03:56;93111.47;;;6.27;100.00
39739;BME280;25422;48.286;8.484;2023-04-24T04:06:23;93130.50;;;6.19;100.00
39739;BME280;25422;48.286;8.484;2023-04-24T04:08:51;93150.25;;;5.81;100.00
39739;BME280;25422;48.286;8.484;2023-04-24T04:11:17;93131.47;;;5.46;100.00
39739;BME280;25422;48.286;8.484;2023-04-24T04:13:44;93143.16;;;5.33;100.00
39739;BME280;25422;48.286;8.484;2023-04-24T04:16:10;93145.75;;;5.25;100.00
39739;BME280;25422;48.286;8.484;2023-04-24T04:18:36;93155.63;;;5.21;100.00
39739;BME280;25422;48.286;8.484;2023-04-24T04:21:04;93138.63;;;5.11;100.00
39739;BME280;25422;48.286;8.484;2023-04-24T04:23:30;93138.94;;;5.07;100.00
39739;BME280;25422;48.286;8.484;2023-04-24T04:26:17;93147.19;;;5.03;100.00
39739;BME280;25422;48.286;8.484;2023-04-24T04:29:01;93160.00;;;5.04;100.00
39739;BME280;25422;48.286;8.484;2023-04-24T04:31:29;93158.41;;;5.03;100.00
39739;BME280;25422;48.286;8.484;2023-04-24T04:33:57;93168.44;;;5.06;100.00
39739;BME280;25422;48.286;8.484;2023-04-24T04:36:23;93168.75;;;5.03;100.00
39739;BME280;25422;48.286;8.484;2023-04-24T04:38:54;93167.28;;;5.01;100.00
39739;BME280;25422;48.286;8.484;2023-04-24T04:41:42;93172.31;;;4.94;100.00
39739;BME280;25422;48.286;8.484;2023-04-24T04:44:09;93167.13;;;4.94;100.00
39739;BME280;25422;48.286;8.484;2023-04-24T04:46:35;93167.13;;;4.94;100.00
39739;BME280;25422;48.286;8.484;2023-04-24T04:49:16;93168.75;;;4.95;100.00
39739;BME280;25422;48.286;8.484;2023-04-24T04:51:42;93165.84;;;4.98;100.00
39739;BME280;25422;48.286;8.484;2023-04-24T04:54:08;93180.56;;;4.98;100.00
39739;BME280;25422;48.286;8.484;2023-04-24T04:56:35;93185.59;;;4.91;100.00
39739;BME280;25422;48.286;8.484;2023-04-24T04:59:01;93175.53;;;4.88;100.00
39739;BME280;25422;48.286;8.484;2023-04-24T05:01:27;93189.16;;;4.90;100.00
39739;BME280;25422;48.286;8.484;2023-04-24T05:03:54;93189.78;;;4.92;100.00
39739;BME280;25422;48.286;8.484;2023-04-24T05:06:20;93193.38;;;4.91;100.00
39739;BME280;25422;48.286;8.484;2023-04-24T05:08:45;93198.22;;;4.94;100.00
39739;BME280;25422;48.286;8.484;2023-04-24T05:11:22;93195.63;;;4.94;100.00
39739;BME280;25422;48.286;8.484;2023-04-24T05:13:48;93189.31;;;4.97;100.00
39739;BME280;25422;48.286;8.484;2023-04-24T05:16:22;93196.59;;;4.93;100.00
39739;BME280;25422;48.286;8.484;2023-04-24T05:18:49;93203.41;;;4.94;100.00
39739;BME280;25422;48.286;8.484;2023-04-24T05:21:19;93209.91;;;4.98;100.00
39739;BME280;25422;48.286;8.484;2023-04-24T05:23:49;93226.09;;;5.09;100.00
39739;BME280;25422;48.286;8.484;2023-04-24T05:26:22;93215.78;;;5.17;100.00
39739;BME280;25422;48.286;8.484;2023-04-24T05:28:48;93218.72;;;5.55;100.00
39739;BME280;25422;48.286;8.484;2023-04-24T05:31:15;93220.31;;;6.05;100.00
39739;BME280;25422;48.286;8.484;2023-04-24T05:33:40;93221.88;;;6.23;100.00
39739;BME280;25422;48.286;8.484;2023-04-24T05:36:06;93225.44;;;7.09;100.00
39739;BME280;25422;48.286;8.484;2023-04-24T05:38:32;93226.53;;;8.00;100.00
39739;BME280;25422;48.286;8.484;2023-04-24T05:40:59;93222.81;;;8.77;100.00
39739;BME280;25422;48.286;8.484;2023-04-24T05:43:25;93229.19;;;9.26;100.00
39739;BME280;25422;48.286;8.484;2023-04-24T05:45:50;93230.28;;;9.17;100.00
39739;BME280;25422;48.286;8.484;2023-04-24T05:48:17;93224.25;;;9.74;100.00
39739;BME280;25422;48.286;8.484;2023-04-24T05:50:42;93228.09;;;10.57;100.00
39739;BME280;25422;48.286;8.484;2023-04-24T05:53:08;93238.88;;;10.89;100.00
39739;BME280;25422;48.286;8.484;2023-04-24T05:55:36;93236.00;;;10.35;100.00
39739;BME280;25422;48.286;8.484;2023-04-24T05:58:01;93223.84;;;10.56;100.00
39739;BME280;25422;48.286;8.484;2023-04-24T06:00:28;93235.88;;;10.22;100.00
39739;BME280;25422;48.286;8.484;2023-04-24T06:03:01;93245.44;;;9.43;100.00
39739;BME280;25422;48.286;8.484;2023-04-24T06:05:29;93236.81;;;8.91;100.00
39739;BME280;25422;48.286;8.484;2023-04-24T06:07:55;93239.63;;;8.89;100.00
39739;BME280;25422;48.286;8.484;2023-04-24T06:10:23;93254.03;;;9.22;100.00
39739;BME280;25422;48.286;8.484;2023-04-24T06:12:49;93246.00;;;9.60;100.00
39739;BME280;25422;48.286;8.484;2023-04-24T06:15:16;93248.78;;;9.00;100.00
39739;BME280;25422;48.286;8.484;2023-04-24T06:18:03;93258.16;;;8.65;100.00
39739;BME280;25422;48.286;8.484;2023-04-24T06:20:28;93251.13;;;7.97;100.00
39739;BME280;25422;48.286;8.484;2023-04-24T06:22:54;93246.81;;;7.43;100.00
39739;BME280;25422;48.286;8.484;2023-04-24T06:25:19;93250.94;;;7.60;100.00
39739;BME280;25422;48.286;8.484;2023-04-24T06:27:45;93249.31;;;7.59;100.00
39739;BME280;25422;48.286;8.484;2023-04-24T06:30:11;93254.53;;;7.83;100.00
39739;BME280;25422;48.286;8.484;2023-04-24T06:32:37;93250.75;;;7.85;100.00
39739;BME280;25422;48.286;8.484;2023-04-24T06:35:03;93250.56;;;7.64;100.00
39739;BME280;25422;48.286;8.484;2023-04-24T06:37:29;93251.47;;;7.79;100.00
39739;BME280;25422;48.286;8.484;2023-04-24T06:39:54;93254.00;;;7.87;100.00
39739;BME280;25422;48.286;8.484;2023-04-24T06:42:20;93267.25;;;7.54;100.00
39739;BME280;25422;48.286;8.484;2023-04-24T06:44:49;93276.50;;;7.02;100.00
39739;BME280;25422;48.286;8.484;2023-04-24T06:47:15;93286.34;;;6.11;100.00
39739;BME280;25422;48.286;8.484;2023-04-24T06:49:41;93278.84;;;5.75;100.00
39739;BME280;25422;48.286;8.484;2023-04-24T06:52:07;93298.63;;;5.43;100.00
39739;BME280;25422;48.286;8.484;2023-04-24T06:54:33;93303.59;;;5.20;100.00
39739;BME280;25422;48.286;8.484;2023-04-24T06:56:59;93310.69;;;5.10;100.00
39739;BME280;25422;48.286;8.484;2023-04-24T06:59:29;93296.56;;;4.96;100.00
39739;BME280;25422;48.286;8.484;2023-04-24T07:01:55;93297.69;;;4.93;100.00
39739;BME280;25422;48.286;8.484;2023-04-24T07:04:20;93314.53;;;4.97;100.00
39739;BME280;25422;48.286;8.484;2023-04-24T07:06:47;93308.06;;;4.93;100.00
39739;BME280;25422;48.286;8.484;2023-04-24T07:09:12;93313.44;;;5.00;100.00
39739;BME280;25422;48.286;8.484;2023-04-24T07:11:44;93320.44;;;5.07;100.00
39739;BME280;25422;48.286;8.484;2023-04-24T07:14:10;93311.72;;;5.17;100.00
39739;BME280;25422;48.286;8.484;2023-04-24T07:16:36;93313.44;;;5.76;100.00
39739;BME280;25422;48.286;8.484;2023-04-24T07:19:01;93313.44;;;5.92;100.00
39739;BME280;25422;48.286;8.484;2023-04-24T07:21:27;93314.56;;;5.89;100.00
39739;BME280;25422;48.286;8.484;2023-04-24T07:23:53;93333.41;;;5.91;100.00
39739;BME280;25422;48.286;8.484;2023-04-24T07:26:19;93316.50;;;5.71;100.00
39739;BME280;25422;48.286;8.484;2023-04-24T07:28:46;93324.78;;;5.83;100.00
39739;BME280;25422;48.286;8.484;2023-04-24T07:31:11;93322.50;;;5.71;100.00
39739;BME280;25422;48.286;8.484;2023-04-24T07:33:37;93330.13;;;5.89;100.00
39739;BME280;25422;48.286;8.484;2023-04-24T07:36:03;93331.97;;;6.05;100.00
39739;BME280;25422;48.286;8.484;2023-04-24T07:38:31;93341.38;;;6.23;100.00
39739;BME280;25422;48.286;8.484;2023-04-24T07:40:57;93338.78;;;6.06;100.00
39739;BME280;25422;48.286;8.484;2023-04-24T07:43:23;93348.34;;;5.98;100.00
39739;BME280;25422;48.286;8.484;2023-04-24T07:45:50;93356.59;;;5.93;100.00
39739;BME280;25422;48.286;8.484;2023-04-24T07:48:15;93354.97;;;5.84;100.00
39739;BME280;25422;48.286;8.484;2023-04-24T07:50:43;93348.81;;;5.85;100.00
39739;BME280;25422;48.286;8.484;2023-04-24T07:53:08;93351.22;;;5.86;100.00
39739;BME280;25422;48.286;8.484;2023-04-24T07:55:33;93358.53;;;5.83;100.00
39739;BME280;25422;48.286;8.484;2023-04-24T07:57:59;93375.88;;;5.82;100.00
39739;BME280;25422;48.286;8.484;2023-04-24T08:00:24;93372.16;;;5.85;100.00
39739;BME280;25422;48.286;8.484;2023-04-24T08:02:50;93376.19;;;5.71;100.00
39739;BME280;25422;48.286;8.484;2023-04-24T08:05:15;93365.78;;;5.63;100.00
39739;BME280;25422;48.286;8.484;2023-04-24T08:07:41;93371.91;;;5.53;100.00
39739;BME280;25422;48.286;8.484;2023-04-24T08:10:10;93376.50;;;5.68;100.00
39739;BME280;25422;48.286;8.484;2023-04-24T08:12:37;93374.50;;;5.53;100.00
39739;BME280;25422;48.286;8.484;2023-04-24T08:15:02;93386.06;;;5.59;100.00
39739;BME280;25422;48.286;8.484;2023-04-24T08:17:28;93393.50;;;5.54;100.00
39739;BME280;25422;48.286;8.484;2023-04-24T08:19:53;93386.38;;;5.56;100.00
39739;BME280;25422;48.286;8.484;2023-04-24T08:22:29;93385.75;;;5.62;100.00
39739;BME280;25422;48.286;8.484;2023-04-24T08:24:55;93379.41;;;5.56;100.00
39739;BME280;25422;48.286;8.484;2023-04-24T08:27:22;93388.50;;;5.61;100.00
39739;BME280;25422;48.286;8.484;2023-04-24T08:29:48;93391.28;;;5.67;100.00
39739;BME280;25422;48.286;8.484;2023-04-24T08:32:13;93395.03;;;5.81;100.00
39739;BME280;25422;48.286;8.484;2023-04-24T08:34:39;93391.16;;;5.94;100.00
39739;BME280;25422;48.286;8.484;2023-04-24T08:37:04;93394.94;;;6.40;100.00
39739;BME280;25422;48.286;8.484;2023-04-24T08:39:30;93395.53;;;6.84;100.00
39739;BME280;25422;48.286;8.484;2023-04-24T08:41:56;93391.06;;;7.57;100.00
39739;BME280;25422;48.286;8.484;2023-04-24T08:44:21;93391.97;;;8.95;100.00
39739;BME280;25422;48.286;8.484;2023-04-24T08:46:48;93404.69;;;8.98;100.00
39739;BME280;25422;48.286;8.484;2023-04-24T08:49:14;93398.84;;;7.88;100.00
39739;BME280;25422;48.286;8.484;2023-04-24T08:51:44;93399.91;;;7.39;100.00
39739;BME280;25422;48.286;8.484;2023-04-24T08:54:11;93407.13;;;8.47;100.00
39739;BME280;25422;48.286;8.484;2023-04-24T08:56:38;93403.59;;;9.22;100.00
39739;BME280;25422;48.286;8.484;2023-04-24T08:59:06;93407.06;;;8.70;100.00
39739;BME280;25422;48.286;8.484;2023-04-24T09:01:32;93419.22;;;8.77;100.00
39739;BME280;25422;48.286;8.484;2023-04-24T09:04:02;93415.66;;;8.55;100.00
39739;BME280;25422;48.286;8.484;2023-04-24T09:06:29;93414.84;;;8.08;100.00
39739;BME280;25422;48.286;8.484;2023-04-24T09:08:57;93420.78;;;7.63;100.00
39739;BME280;25422;48.286;8.484;2023-04-24T09:11:24;93424.69;;;7.27;100.00
39739;BME280;25422;48.286;8.484;2023-04-24T09:13:50;93439.09;;;6.57;100.00
39739;BME280;25422;48.286;8.484;2023-04-24T09:16:16;93442.00;;;6.04;100.00
39739;BME280;25422;48.286;8.484;2023-04-24T09:18:42;93447.84;;;5.98;100.00
39739;BME280;25422;48.286;8.484;2023-04-24T09:21:08;93440.38;;;6.78;100.00
39739;BME280;25422;48.286;8.484;2023-04-24T09:23:34;93447.84;;;8.16;100.00
39739;BME280;25422;48.286;8.484;2023-04-24T09:26:01;93434.75;;;9.54;100.00
39739;BME280;25422;48.286;8.484;2023-04-24T09:28:45;93461.78;;;8.55;100.00
39739;BME280;25422;48.286;8.484;2023-04-24T09:31:17;93466.97;;;8.78;100.00
39739;BME280;25422;48.286;8.484;2023-04-24T09:34:09;93453.06;;;8.39;100.00
39739;BME280;25422;48.286;8.484;2023-04-24T09:36:40;93458.78;;;8.12;100.00
39739;BME280;25422;48.286;8.484;2023-04-24T09:39:11;93466.13;;;8.08;100.00
39739;BME280;25422;48.286;8.484;2023-04-24T09:41:57;93473.38;;;7.89;100.00
39739;BME280;25422;48.286;8.484;2023-04-24T09:44:24;93472.44;;;8.68;100.00
39739;BME280;25422;48.286;8.484;2023-04-24T09:46:53;93467.31;;;9.88;100.00
39739;BME280;25422;48.286;8.484;2023-04-24T09:49:24;93468.91;;;9.89;100.00
39739;BME280;25422;48.286;8.484;2023-04-24T09:51:50;93473.97;;;10.05;100.00
39739;BME280;25422;48.286;8.484;2023-04-24T09:54:18;93475.66;;;9.98;100.00
39739;BME280;25422;48.286;8.484;2023-04-24T09:56:47;93480.41;;;10.39;100.00
39739;BME280;25422;48.286;8.484;2023-04-24T09:59:14;93475.41;;;10.66;100.00
39739;BME280;25422;48.286;8.484;2023-04-24T10:01:40;93480.34;;;10.76;100.00
39739;BME280;25422;48.286;8.484;2023-04-24T10:04:28;93482.91;;;10.33;100.00
39739;BME280;25422;48.286;8.484;2023-04-24T10:06:56;93478.78;;;9.72;100.00
39739;BME280;25422;48.286;8.484;2023-04-24T10:09:24;93487.59;;;9.71;100.00
39739;BME280;25422;48.286;8.484;2023-04-24T10:11:51;93469.03;;;9.66;100.00
39739;BME280;25422;48.286;8.484;2023-04-24T10:14:23;93483.25;;;10.08;100.00
39739;BME280;25422;48.286;8.484;2023-04-24T10:16:51;93475.59;;;10.43;100.00
39739;BME280;25422;48.286;8.484;2023-04-24T10:19:17;93481.00;;;11.06;100.00
39739;BME280;25422;48.286;8.484;2023-04-24T10:21:46;93486.19;;;10.78;100.00
39739;BME280;25422;48.286;8.484;2023-04-24T10:24:13;93482.13;;;11.54;100.00
39739;BME280;25422;48.286;8.484;2023-04-24T10:26:40;93489.56;;;12.27;96.28
39739;BME280;25422;48.286;8.484;2023-04-24T10:29:06;93492.38;;;11.48;98.80
39739;BME280;25422;48.286;8.484;2023-04-24T10:31:36;93484.53;;;10.70;99.99
39739;BME280;25422;48.286;8.484;2023-04-24T10:34:03;93500.56;;;10.67;100.00
39739;BME280;25422;48.286;8.484;2023-04-24T10:36:30;93502.13;;;10.40;98.49
39739;BME280;25422;48.286;8.484;2023-04-24T10:39:01;93501.53;;;9.33;100.00
39739;BME280;25422;48.286;8.484;2023-04-24T10:41:30;93504.63;;;9.67;100.00
39739;BME280;25422;48.286;8.484;2023-04-24T10:44:08;93499.09;;;10.06;97.61
39739;BME280;25422;48.286;8.484;2023-04-24T10:46:35;93507.75;;;10.07;100.00
39739;BME280;25422;48.286;8.484;2023-04-24T10:49:04;93506.16;;;10.42;100.00
39739;BME280;25422;48.286;8.484;2023-04-24T10:51:48;93512.28;;;10.71;95.03
39739;BME280;25422;48.286;8.484;2023-04-24T10:54:27;93511.97;;;10.23;98.47
39739;BME280;25422;48.286;8.484;2023-04-24T10:56:53;93520.72;;;10.15;100.00
39739;BME280;25422;48.286;8.484;2023-04-24T10:59:38;93517.53;;;10.20;100.00
39739;BME280;25422;48.286;8.484;2023-04-24T11:02:06;93516.13;;;9.87;100.00
39739;BME280;25422;48.286;8.484;2023-04-24T11:04:32;93518.84;;;9.64;98.87
39739;BME280;25422;48.286;8.484;2023-04-24T11:06:58;93520.09;;;9.38;100.00
39739;BME280;25422;48.286;8.484;2023-04-24T11:09:27;93521.00;;;9.31;100.00
39739;BME280;25422;48.286;8.484;2023-04-24T11:12:06;93527.72;;;8.87;100.00
39739;BME280;25422;48.286;8.484;2023-04-24T11:17:35;93543.97;;;8.42;100.00
39739;BME280;25422;48.286;8.484;2023-04-24T11:20:09;93542.13;;;8.20;100.00
39739;BME280;25422;48.286;8.484;2023-04-24T11:22:36;93534.25;;;7.97;100.00
39739;BME280;25422;48.286;8.484;2023-04-24T11:25:05;93531.81;;;7.95;100.00
39739;BME280;25422;48.286;8.484;2023-04-24T11:27:40;93537.56;;;8.14;100.00
39739;BME280;25422;48.286;8.484;2023-04-24T11:30:06;93538.66;;;7.88;100.00
39739;BME280;25422;48.286;8.484;2023-04-24T11:37:27;93537.84;;;8.27;100.00
39739;BME280;25422;48.286;8.484;2023-04-24T11:39:54;93534.66;;;8.48;100.00
39739;BME280;25422;48.286;8.484;2023-04-24T11:42:21;93545.34;;;8.62;100.00
39739;BME280;25422;48.286;8.484;2023-04-24T11:44:47;93551.09;;;8.49;100.00
39739;BME280;25422;48.286;8.484;2023-04-24T11:47:14;93554.69;;;8.48;100.00
39739;BME280;25422;48.286;8.484;2023-04-24T11:49:39;93548.47;;;8.17;100.00
39739;BME280;25422;48.286;8.484;2023-04-24T11:52:05;93548.44;;;7.86;100.00
39739;BME280;25422;48.286;8.484;2023-04-24T11:54:30;93547.31;;;7.88;100.00
39739;BME280;25422;48.286;8.484;2023-04-24T11:56:56;93538.78;;;7.55;100.00
39739;BME280;25422;48.286;8.484;2023-04-24T11:59:22;93539.56;;;7.55;100.00
39739;BME280;25422;48.286;8.484;2023-04-24T12:01:49;93528.66;;;7.68;100.00
39739;BME280;25422;48.286;8.484;2023-04-24T12:04:16;93524.97;;;7.94;100.00
39739;BME280;25422;48.286;8.484;2023-04-24T12:07:01;93521.81;;;9.46;100.00
39739;BME280;25422;48.286;8.484;2023-04-24T12:09:27;93514.53;;;10.01;100.00
39739;BME280;25422;48.286;8.484;2023-04-24T12:11:56;93520.16;;;10.20;99.82
39739;BME280;25422;48.286;8.484;2023-04-24T12:14:24;93524.59;;;9.44;100.00
39739;BME280;25422;48.286;8.484;2023-04-24T12:16:50;93527.75;;;9.02;100.00
39739;BME280;25422;48.286;8.484;2023-04-24T12:19:21;93517.56;;;9.30;98.96
39739;BME280;25422;48.286;8.484;2023-04-24T12:21:59;93526.22;;;9.31;99.06
39739;BME280;25422;48.286;8.484;2023-04-24T12:24:25;93513.00;;;9.62;98.99
39739;BME280;25422;48.286;8.484;2023-04-24T12:26:50;93521.00;;;10.05;94.75
39739;BME280;25422;48.286;8.484;2023-04-24T12:29:22;93514.16;;;10.04;95.42
39739;BME280;25422;48.286;8.484;2023-04-24T12:31:48;93518.53;;;11.20;88.10
39739;BME280;25422;48.286;8.484;2023-04-24T12:34:21;93522.00;;;10.99;83.67
39739;BME280;25422;48.286;8.484;2023-04-24T12:36:47;93505.59;;;11.40;76.77
39739;BME280;25422;48.286;8.484;2023-04-24T12:39:17;93512.53;;;11.83;74.10
39739;BME280;25422;48.286;8.484;2023-04-24T12:41:56;93507.47;;;12.92;68.00
39739;BME280;25422;48.286;8.484;2023-04-24T12:44:34;93512.72;;;12.17;65.12
39739;BME280;25422;48.286;8.484;2023-04-24T12:47:01;93520.13;;;12.55;63.09
39739;BME280;25422;48.286;8.484;2023-04-24T12:49:27;93535.41;;;12.38;62.80
39739;BME280;25422;48.286;8.484;2023-04-24T12:51:53;93525.06;;;12.23;63.23
39739;BME280;25422;48.286;8.484;2023-04-24T12:54:18;93520.31;;;12.60;62.40
39739;BME280;25422;48.286;8.484;2023-04-24T12:56:43;93523.25;;;12.30;60.81
39739;BME280;25422;48.286;8.484;2023-04-24T12:59:09;93522.41;;;12.85;59.24
39739;BME280;25422;48.286;8.484;2023-04-24T13:01:35;93526.63;;;12.86;59.67
39739;BME280;25422;48.286;8.484;2023-04-24T13:04:00;93526.06;;;13.04;56.46
39739;BME280;25422;48.286;8.484;2023-04-24T13:06:25;93527.38;;;12.53;56.56
39739;BME280;25422;48.286;8.484;2023-04-24T13:08:51;93532.63;;;11.76;60.98
39739;BME280;25422;48.286;8.484;2023-04-24T13:11:17;93557.97;;;10.54;69.38